createdAt,value
2023-02-11T00:01:29.400Z,17.23
2023-02-11T00:03:57.332Z,17.10
2023-02-11T00:06:25.225Z,17.60
2023-02-11T00:08:52.462Z,16.88
2023-02-11T00:11:35.032Z,15.40
2023-02-11T00:14:05.392Z,14.20
2023-02-11T00:16:32.700Z,16.05
2023-02-11T00:19:01.655Z,15.23
2023-02-11T00:21:29.032Z,13.68
2023-02-11T00:23:59.919Z,13.10
2023-02-11T00:26:29.788Z,14.82
2023-02-11T00:28:57.251Z,13.60
2023-02-11T00:31:25.197Z,14.18
2023-02-11T00:33:52.863Z,13.38
2023-02-11T00:36:26.676Z,13.60
2023-02-11T00:38:55.135Z,15.18
2023-02-11T00:41:22.963Z,14.05
2023-02-11T00:43:50.265Z,16.08
2023-02-11T00:46:17.212Z,17.08
2023-02-11T00:48:44.286Z,15.77
2023-02-11T00:51:11.832Z,16.27
2023-02-11T00:53:39.246Z,17.17
2023-02-11T00:56:06.740Z,15.65
2023-02-11T00:58:33.891Z,17.20
2023-02-11T01:01:04.337Z,15.20
2023-02-11T01:03:31.775Z,14.10
2023-02-11T01:05:58.555Z,16.33
2023-02-11T01:08:25.441Z,15.48
2023-02-11T01:11:03.180Z,14.15
2023-02-11T01:13:32.887Z,13.52
2023-02-11T01:16:00.039Z,14.57
2023-02-11T01:18:27.777Z,13.48
2023-02-11T01:20:55.270Z,12.75
2023-02-11T01:23:22.396Z,13.95
2023-02-11T01:25:49.961Z,13.82
2023-02-11T01:28:23.117Z,14.65
2023-02-11T01:30:51.334Z,14.88
2023-02-11T01:33:18.331Z,13.88
2023-02-11T01:35:46.010Z,12.52
2023-02-11T01:38:17.550Z,14.75
2023-02-11T01:40:52.533Z,13.38
2023-02-11T01:43:20.123Z,13.68
2023-02-11T01:45:50.115Z,14.13
2023-02-11T01:48:29.174Z,13.57
2023-02-11T01:51:03.813Z,13.13
2023-02-11T01:53:50.695Z,14.98
2023-02-11T01:56:38.208Z,13.93
2023-02-11T01:59:11.735Z,13.57
2023-02-11T02:01:40.595Z,12.57
2023-02-11T02:04:10.256Z,12.20
2023-02-11T02:06:58.276Z,12.55
2023-02-11T02:09:29.325Z,11.95
2023-02-11T02:11:56.122Z,11.30
2023-02-11T02:14:22.998Z,12.32
2023-02-11T02:16:50.554Z,11.95
2023-02-11T02:20:05.759Z,12.65
2023-02-11T02:22:38.506Z,13.73
2023-02-11T02:25:20.466Z,13.30
2023-02-11T02:28:02.341Z,13.05
2023-02-11T02:30:41.704Z,12.90
2023-02-11T02:33:24.220Z,14.40
2023-02-11T02:36:12.748Z,12.02
2023-02-11T02:38:50.819Z,12.60
2023-02-11T02:41:21.157Z,13.82
2023-02-11T02:43:51.868Z,13.27
2023-02-11T02:46:25.041Z,13.30
2023-02-11T02:48:53.794Z,15.13
2023-02-11T02:51:48.522Z,13.98
2023-02-11T02:54:33.987Z,12.70
2023-02-11T02:57:06.863Z,14.13
2023-02-11T03:00:01.060Z,15.02
2023-02-11T03:02:42.329Z,13.40
2023-02-11T03:05:21.388Z,13.35
2023-02-11T03:07:51.815Z,15.73
2023-02-11T03:10:35.633Z,15.48
2023-02-11T03:13:03.617Z,14.98
2023-02-11T03:15:35.030Z,13.90
2023-02-11T03:18:03.845Z,14.57
2023-02-11T03:20:35.995Z,14.63
2023-02-11T03:23:07.587Z,14.68
2023-02-11T03:25:40.794Z,13.68
2023-02-11T03:28:49.649Z,15.07
2023-02-11T03:31:31.048Z,14.18
2023-02-11T03:34:14.588Z,14.73
2023-02-11T03:37:00.477Z,15.13
2023-02-11T03:39:52.950Z,13.98
2023-02-11T03:42:20.288Z,13.15
2023-02-11T03:44:53.834Z,14.70
2023-02-11T03:47:25.998Z,14.43
2023-02-11T03:49:55.470Z,12.57
2023-02-11T03:52:24.907Z,13.30
2023-02-11T03:54:55.886Z,13.25
2023-02-11T03:57:22.851Z,12.32
2023-02-11T03:59:58.463Z,12.82
2023-02-11T04:02:29.812Z,12.15
2023-02-11T04:04:57.037Z,12.55
2023-02-11T04:07:23.872Z,11.90
2023-02-11T04:09:50.859Z,11.32
2023-02-11T04:12:17.788Z,11.73
2023-02-11T04:14:44.781Z,13.30
2023-02-11T04:17:12.882Z,12.85
2023-02-11T04:19:39.762Z,12.70
2023-02-11T04:22:07.240Z,11.90
2023-02-11T04:24:34.412Z,13.20
2023-02-11T04:27:01.340Z,14.05
2023-02-11T04:29:28.465Z,13.60
2023-02-11T04:31:56.050Z,12.57
2023-02-11T04:34:24.562Z,12.52
2023-02-11T04:36:51.613Z,13.60
2023-02-11T04:39:19.165Z,12.98
2023-02-11T04:41:46.032Z,12.00
2023-02-11T04:44:12.957Z,12.45
2023-02-11T04:46:39.744Z,11.77
2023-02-11T04:49:06.620Z,11.93
2023-02-11T04:51:33.653Z,12.35
2023-02-11T04:54:00.484Z,11.50
2023-02-11T04:56:27.319Z,10.45
2023-02-11T04:58:54.152Z,10.98
2023-02-11T05:01:21.075Z,9.23
2023-02-11T05:03:48.538Z,9.05
2023-02-11T05:06:15.514Z,8.45
2023-02-11T05:08:42.577Z,6.43
2023-02-11T05:11:16.243Z,5.82
2023-02-11T05:13:43.344Z,4.95
2023-02-11T05:16:10.516Z,7.35
2023-02-11T05:18:42.160Z,7.38
2023-02-11T05:21:10.903Z,7.82
2023-02-11T05:23:38.573Z,6.57
2023-02-11T05:26:05.401Z,6.15
2023-02-11T05:28:32.743Z,5.47
2023-02-11T05:30:59.679Z,4.90
2023-02-11T05:33:26.652Z,5.80
2023-02-11T05:35:59.701Z,6.63
2023-02-11T05:38:27.332Z,6.90
2023-02-11T05:40:54.578Z,6.95
2023-02-11T05:43:21.696Z,7.88
2023-02-11T05:45:48.874Z,7.63
2023-02-11T05:48:16.550Z,7.95
2023-02-11T05:50:43.873Z,7.85
2023-02-11T05:53:10.961Z,9.15
2023-02-11T05:55:38.428Z,9.30
2023-02-11T05:58:06.008Z,11.48
2023-02-11T06:00:32.911Z,10.73
2023-02-11T06:03:00.054Z,11.80
2023-02-11T06:05:27.066Z,12.13
2023-02-11T06:07:54.187Z,12.05
2023-02-11T06:10:21.270Z,13.45
2023-02-11T06:12:48.119Z,12.52
2023-02-11T06:15:14.945Z,11.18
2023-02-11T06:17:41.769Z,12.38
2023-02-11T06:20:10.726Z,12.98
2023-02-11T06:22:38.012Z,12.85
2023-02-11T06:25:05.376Z,12.90
2023-02-11T06:27:32.555Z,11.30
2023-02-11T06:29:59.410Z,11.00
2023-02-11T06:32:43.719Z,10.90
2023-02-11T06:35:12.643Z,10.15
2023-02-11T06:37:40.554Z,11.32
2023-02-11T06:40:08.028Z,11.25
2023-02-11T06:42:36.340Z,11.52
2023-02-11T06:45:06.245Z,11.07
2023-02-11T06:47:33.314Z,9.77
2023-02-11T06:50:00.379Z,11.40
2023-02-11T06:52:27.402Z,10.63
2023-02-11T06:54:54.278Z,9.68
2023-02-11T06:57:21.239Z,8.95
2023-02-11T06:59:48.107Z,8.38
2023-02-11T07:02:15.239Z,6.28
2023-02-11T07:04:42.431Z,5.22
2023-02-11T07:07:09.179Z,5.45
2023-02-11T07:09:35.988Z,4.93
2023-02-11T07:12:02.965Z,4.28
2023-02-11T07:14:29.871Z,4.07
2023-02-11T07:16:56.729Z,5.68
2023-02-11T07:19:23.585Z,5.53
2023-02-11T07:21:50.485Z,5.57
2023-02-11T07:24:17.776Z,5.55
2023-02-11T07:26:44.937Z,5.93
2023-02-11T07:29:11.982Z,5.05
2023-02-11T07:31:38.860Z,6.03
2023-02-11T07:34:05.819Z,7.10
2023-02-11T07:36:32.909Z,7.68
2023-02-11T07:39:00.376Z,10.90
2023-02-11T07:41:27.891Z,11.82
2023-02-11T07:43:55.560Z,11.75
2023-02-11T07:46:27.852Z,11.50
2023-02-11T07:48:55.182Z,11.32
2023-02-11T07:51:25.555Z,9.63
2023-02-11T07:53:52.805Z,9.60
2023-02-11T07:56:21.764Z,9.43
2023-02-11T07:58:49.172Z,12.15
2023-02-11T08:02:08.975Z,12.38
2023-02-11T08:04:35.995Z,12.57
2023-02-11T08:07:03.110Z,11.23
2023-02-11T08:09:30.864Z,11.70
2023-02-11T08:11:59.125Z,12.13
2023-02-11T08:14:27.256Z,12.85
2023-02-11T08:16:54.094Z,12.55
2023-02-11T08:19:21.114Z,13.73
2023-02-11T08:21:48.038Z,12.73
2023-02-11T08:24:15.582Z,12.35
2023-02-11T08:26:43.595Z,12.88
2023-02-11T08:29:14.069Z,11.85
2023-02-11T08:31:43.966Z,12.18
2023-02-11T08:34:14.283Z,11.93
2023-02-11T08:36:42.542Z,11.70
2023-02-11T08:39:21.413Z,13.20
2023-02-11T08:41:56.523Z,12.30
2023-02-11T08:44:26.108Z,14.80
2023-02-11T08:46:53.526Z,14.07
2023-02-11T08:49:20.456Z,14.35
2023-02-11T08:51:47.439Z,14.55
2023-02-11T08:54:15.101Z,14.05
2023-02-11T08:56:42.174Z,13.45
2023-02-11T08:59:11.357Z,14.38
2023-02-11T09:01:38.400Z,15.73
2023-02-11T09:04:05.593Z,14.43
2023-02-11T09:06:32.456Z,14.65
2023-02-11T09:08:59.399Z,13.43
2023-02-11T09:11:30.612Z,15.15
2023-02-11T09:13:58.205Z,13.85
2023-02-11T09:16:31.090Z,14.13
2023-02-11T09:18:59.939Z,12.88
2023-02-11T09:21:27.389Z,12.15
2023-02-11T09:23:54.814Z,13.77
2023-02-11T09:26:24.364Z,14.02
2023-02-11T09:28:51.999Z,13.68
2023-02-11T09:31:22.231Z,14.25
2023-02-11T09:33:51.341Z,13.85
2023-02-11T09:36:21.498Z,11.30
2023-02-11T09:38:49.177Z,12.68
2023-02-11T09:41:43.855Z,13.40
2023-02-11T09:44:30.982Z,11.57
2023-02-11T09:47:29.689Z,10.68
2023-02-11T09:50:04.735Z,11.10
2023-02-11T09:52:45.098Z,12.15
2023-02-11T09:55:27.152Z,10.98
2023-02-11T09:57:54.482Z,10.55
2023-02-11T10:00:40.740Z,13.30
2023-02-11T10:03:14.465Z,12.95
2023-02-11T10:06:11.822Z,13.38
2023-02-11T10:08:58.179Z,13.52
2023-02-11T10:11:41.641Z,12.77
2023-02-11T10:14:55.966Z,14.20
2023-02-11T10:17:22.726Z,12.70
2023-02-11T10:20:20.414Z,12.93
2023-02-11T10:23:02.845Z,10.35
2023-02-11T10:25:39.698Z,11.80
2023-02-11T10:28:36.125Z,12.00
2023-02-11T10:31:24.753Z,12.55
2023-02-11T10:34:01.220Z,14.25
2023-02-11T10:36:34.968Z,13.25
2023-02-11T10:39:22.348Z,12.70
2023-02-11T10:42:09.675Z,13.68
2023-02-11T10:44:46.629Z,11.70
2023-02-11T10:47:20.724Z,11.15
2023-02-11T10:49:49.061Z,11.15
2023-02-11T10:52:24.316Z,11.15
2023-02-11T10:55:16.559Z,10.38
2023-02-11T10:58:03.651Z,11.52
2023-02-11T11:00:36.890Z,11.60
2023-02-11T11:03:19.163Z,12.30
2023-02-11T11:05:52.423Z,12.02
2023-02-11T11:08:19.967Z,11.50
2023-02-11T11:11:09.056Z,9.90
2023-02-11T11:13:54.153Z,10.45
2023-02-11T11:16:32.604Z,11.30
2023-02-11T11:19:08.729Z,10.60
2023-02-11T11:21:47.583Z,11.32
2023-02-11T11:24:26.881Z,10.30
2023-02-11T11:26:57.755Z,9.95
2023-02-11T11:29:30.627Z,10.15
2023-02-11T11:32:05.719Z,9.05
2023-02-11T11:34:40.839Z,9.18
2023-02-11T11:37:34.686Z,9.48
2023-02-11T11:40:23.923Z,8.82
2023-02-11T11:43:15.059Z,9.40
2023-02-11T11:46:02.865Z,9.82
2023-02-11T11:48:40.460Z,9.15
2023-02-11T11:51:12.454Z,9.60
2023-02-11T11:53:46.292Z,10.77
2023-02-11T11:56:22.709Z,10.70
2023-02-11T11:58:50.390Z,11.43
2023-02-11T12:01:52.925Z,11.23
2023-02-11T12:04:35.537Z,9.82
2023-02-11T12:07:08.491Z,9.98
2023-02-11T12:09:52.632Z,10.93
2023-02-11T12:12:26.789Z,11.55
2023-02-11T12:15:23.868Z,11.55
2023-02-11T12:18:15.854Z,10.63
2023-02-11T12:21:09.916Z,12.93
2023-02-11T12:23:51.741Z,11.13
2023-02-11T12:26:21.708Z,11.13
2023-02-11T12:29:27.712Z,9.82
2023-02-11T12:32:09.724Z,11.20
2023-02-11T12:34:54.500Z,10.98
2023-02-11T12:37:48.898Z,11.50
2023-02-11T12:40:21.892Z,11.52
2023-02-11T12:43:16.626Z,10.45
2023-02-11T12:46:14.417Z,11.52
2023-02-11T12:48:44.191Z,10.48
2023-02-11T12:51:37.706Z,10.10
2023-02-11T12:54:11.057Z,8.77
2023-02-11T12:56:50.848Z,7.22
2023-02-11T12:59:29.058Z,7.75
2023-02-11T13:01:56.653Z,9.02
2023-02-11T13:04:29.414Z,8.55
2023-02-11T13:06:58.469Z,8.20
2023-02-11T13:09:27.307Z,7.80
2023-02-11T13:11:56.419Z,8.23
2023-02-11T13:14:30.724Z,8.85
2023-02-11T13:16:58.687Z,9.68
2023-02-11T13:19:41.219Z,8.95
2023-02-11T13:22:18.357Z,8.10
2023-02-11T13:24:45.972Z,8.50
2023-02-11T13:27:21.470Z,9.77
2023-02-11T13:29:52.242Z,9.60
2023-02-11T13:32:19.636Z,10.02
2023-02-11T13:34:47.103Z,8.90
2023-02-11T13:37:35.842Z,9.85
2023-02-11T13:40:08.332Z,10.07
2023-02-11T13:42:46.693Z,9.25
2023-02-11T13:45:29.414Z,10.40
2023-02-11T13:48:00.804Z,10.77
2023-02-11T13:50:28.928Z,11.05
2023-02-11T13:53:03.640Z,10.73
2023-02-11T13:55:31.518Z,11.15
2023-02-11T13:58:08.113Z,11.05
2023-02-11T14:00:35.379Z,11.30
2023-02-11T14:03:55.159Z,10.40
2023-02-11T14:06:45.442Z,10.27
2023-02-11T14:09:17.597Z,11.05
2023-02-11T14:11:49.493Z,11.05
2023-02-11T14:14:16.810Z,11.07
2023-02-11T14:17:13.646Z,11.00
2023-02-11T14:19:46.013Z,11.05
2023-02-11T14:22:19.169Z,11.00
2023-02-11T14:24:48.846Z,8.88
2023-02-11T14:27:21.316Z,10.10
2023-02-11T14:29:58.054Z,9.45
2023-02-11T14:32:43.688Z,9.68
2023-02-11T14:35:21.741Z,9.48
2023-02-11T14:37:55.139Z,10.32
2023-02-11T14:40:29.849Z,10.10
2023-02-11T14:42:58.587Z,8.45
2023-02-11T14:45:31.279Z,8.52
2023-02-11T14:48:08.513Z,8.40
2023-02-11T14:50:44.982Z,8.40
2023-02-11T14:53:24.108Z,7.25
2023-02-11T14:55:52.888Z,7.80
2023-02-11T14:58:24.782Z,8.85
2023-02-11T15:00:58.882Z,8.43
2023-02-11T15:03:37.170Z,7.88
2023-02-11T15:06:04.470Z,7.47
2023-02-11T15:08:32.649Z,8.40
2023-02-11T15:11:01.774Z,7.88
2023-02-11T15:13:31.334Z,8.77
2023-02-11T15:16:02.257Z,7.13
2023-02-11T15:18:33.600Z,7.03
2023-02-11T15:21:00.858Z,7.47
2023-02-11T15:23:28.779Z,7.72
2023-02-11T15:25:56.786Z,8.13
2023-02-11T15:28:25.949Z,8.35
2023-02-11T15:30:59.798Z,8.70
2023-02-11T15:33:30.098Z,8.45
2023-02-11T15:35:58.012Z,6.95
2023-02-11T15:38:25.442Z,7.07
2023-02-11T15:40:58.350Z,6.40
2023-02-11T15:43:25.987Z,7.22
2023-02-11T15:45:53.106Z,8.10
2023-02-11T15:48:23.709Z,7.38
2023-02-11T15:50:52.378Z,7.40
2023-02-11T15:53:34.607Z,6.80
2023-02-11T15:56:10.243Z,6.85
2023-02-11T15:58:41.695Z,7.28
2023-02-11T16:01:09.918Z,6.65
2023-02-11T16:03:37.973Z,7.45
2023-02-11T16:06:23.607Z,7.70
2023-02-11T16:08:58.100Z,7.22
2023-02-11T16:11:27.325Z,7.38
2023-02-11T16:13:54.939Z,7.95
2023-02-11T16:16:29.904Z,7.28
2023-02-11T16:19:05.292Z,7.70
2023-02-11T16:21:39.430Z,7.82
2023-02-11T16:24:07.675Z,7.90
2023-02-11T16:26:43.915Z,7.57
2023-02-11T16:29:16.416Z,8.27
2023-02-11T16:31:46.903Z,8.30
2023-02-11T16:34:20.848Z,8.75
2023-02-11T16:36:48.322Z,8.10
2023-02-11T16:39:16.920Z,7.50
2023-02-11T16:41:44.430Z,8.25
2023-02-11T16:44:11.877Z,8.50
2023-02-11T16:46:39.689Z,8.15
2023-02-11T16:49:16.876Z,8.20
2023-02-11T16:51:44.834Z,9.07
2023-02-11T16:54:15.251Z,8.65
2023-02-11T16:56:43.690Z,8.02
2023-02-11T16:59:11.094Z,8.10
2023-02-11T17:01:39.621Z,9.68
2023-02-11T17:04:07.354Z,7.20
2023-02-11T17:06:35.256Z,7.93
2023-02-11T17:09:02.569Z,7.50
2023-02-11T17:11:29.807Z,7.25
2023-02-11T17:13:56.694Z,7.63
2023-02-11T17:16:25.133Z,7.15
2023-02-11T17:18:52.253Z,6.47
2023-02-11T17:21:19.256Z,6.32
2023-02-11T17:23:46.199Z,5.65
2023-02-11T17:26:13.191Z,5.40
2023-02-11T17:28:40.399Z,5.88
2023-02-11T17:31:09.584Z,6.10
2023-02-11T17:33:37.898Z,6.00
2023-02-11T17:36:07.113Z,6.45
2023-02-11T17:38:34.676Z,6.47
2023-02-11T17:41:04.691Z,6.28
2023-02-11T17:43:32.164Z,6.65
2023-02-11T17:45:59.258Z,7.25
2023-02-11T17:48:26.261Z,7.95
2023-02-11T17:50:53.251Z,7.32
2023-02-11T17:53:20.067Z,7.78
2023-02-11T17:55:46.901Z,7.88
2023-02-11T17:58:13.678Z,8.27
2023-02-11T18:00:40.700Z,8.20
2023-02-11T18:03:07.636Z,9.40
2023-02-11T18:05:36.318Z,8.35
2023-02-11T18:08:05.481Z,8.35
2023-02-11T18:10:33.612Z,7.75
2023-02-11T18:13:03.142Z,7.75
2023-02-11T18:15:30.070Z,8.00
2023-02-11T18:17:56.922Z,8.10
2023-02-11T18:20:23.756Z,9.00
2023-02-11T18:22:50.662Z,7.57
2023-02-11T18:25:18.953Z,7.95
2023-02-11T18:27:46.696Z,7.93
2023-02-11T18:30:19.100Z,7.13
2023-02-11T18:32:46.358Z,6.32
2023-02-11T18:35:15.617Z,6.85
2023-02-11T18:37:43.333Z,6.65
2023-02-11T18:40:11.406Z,7.10
2023-02-11T18:42:38.559Z,8.70
2023-02-11T18:45:09.717Z,7.38
2023-02-11T18:47:38.097Z,7.72
2023-02-11T18:50:06.859Z,7.35
2023-02-11T18:52:34.770Z,6.28
2023-02-11T18:55:01.824Z,7.25
2023-02-11T18:57:28.730Z,8.18
2023-02-11T18:59:55.825Z,8.52
2023-02-11T19:02:24.895Z,6.85
2023-02-11T19:04:52.325Z,7.90
2023-02-11T19:07:19.226Z,8.95
2023-02-11T19:09:46.082Z,7.93
2023-02-11T19:12:12.885Z,8.73
2023-02-11T19:14:39.836Z,7.95
2023-02-11T19:17:08.250Z,8.18
2023-02-11T19:19:36.755Z,8.95
2023-02-11T19:22:10.655Z,9.80
2023-02-11T19:24:38.110Z,7.60
2023-02-11T19:27:05.627Z,9.52
2023-02-11T19:29:35.221Z,7.82
2023-02-11T19:32:03.386Z,7.32
2023-02-11T19:34:30.483Z,8.23
2023-02-11T19:36:59.785Z,7.47
2023-02-11T19:39:27.207Z,8.82
2023-02-11T19:41:54.130Z,7.55
2023-02-11T19:44:20.998Z,8.85
2023-02-11T19:46:49.063Z,9.02
2023-02-11T19:49:23.017Z,8.68
2023-02-11T19:51:51.096Z,8.65
2023-02-11T19:54:18.216Z,7.82
2023-02-11T19:56:45.524Z,8.25
2023-02-11T19:59:12.603Z,7.85
2023-02-11T20:01:39.943Z,6.97
2023-02-11T20:04:07.729Z,7.32
2023-02-11T20:06:35.453Z,7.00
2023-02-11T20:09:07.819Z,6.93
2023-02-11T20:11:35.612Z,5.68
2023-02-11T20:14:03.015Z,4.88
2023-02-11T20:16:47.032Z,3.90
2023-02-11T20:19:20.536Z,3.38
2023-02-11T20:21:48.895Z,2.88
2023-02-11T20:24:20.394Z,2.75
2023-02-11T20:26:48.892Z,3.08
2023-02-11T20:29:19.314Z,2.10
2023-02-11T20:31:46.834Z,1.67
2023-02-11T20:34:13.895Z,1.85
2023-02-11T20:36:41.637Z,1.70
2023-02-11T20:39:10.137Z,1.83
2023-02-11T20:41:40.200Z,1.63
2023-02-11T20:44:08.680Z,2.00
2023-02-11T20:46:38.539Z,1.90
2023-02-11T20:49:06.294Z,1.65
2023-02-11T20:51:34.370Z,1.80
2023-02-11T20:54:02.069Z,1.67
2023-02-11T20:56:34.573Z,1.52
2023-02-11T20:59:04.099Z,1.90
2023-02-11T21:01:36.394Z,1.60
2023-02-11T21:04:03.641Z,2.00
2023-02-11T21:06:35.839Z,2.17
2023-02-11T21:09:04.083Z,2.20
2023-02-11T21:11:31.721Z,2.10
2023-02-11T21:13:59.510Z,2.58
2023-02-11T21:16:27.504Z,2.75
2023-02-11T21:18:55.477Z,2.95
2023-02-11T21:21:23.419Z,2.92
2023-02-11T21:23:50.876Z,3.17
2023-02-11T21:26:18.190Z,2.22
2023-02-11T21:28:45.646Z,2.75
2023-02-11T21:31:22.241Z,2.70
2023-02-11T21:33:50.106Z,3.80
2023-02-11T21:36:17.924Z,3.58
2023-02-11T21:38:45.726Z,2.83
2023-02-11T21:41:13.056Z,2.70
2023-02-11T21:43:40.906Z,3.35
2023-02-11T21:46:09.626Z,3.08
2023-02-11T21:48:37.357Z,2.70
2023-02-11T21:51:06.268Z,2.55
2023-02-11T21:53:33.627Z,3.88
2023-02-11T21:56:08.275Z,4.00
2023-02-11T21:58:36.104Z,3.90
2023-02-11T22:01:10.297Z,4.63
2023-02-11T22:03:37.509Z,3.67
2023-02-11T22:06:09.105Z,3.13
2023-02-11T22:08:36.507Z,2.50
2023-02-11T22:11:05.110Z,3.13
2023-02-11T22:13:32.512Z,2.33
2023-02-11T22:16:01.413Z,1.95
2023-02-11T22:18:30.433Z,2.10
2023-02-11T22:21:01.292Z,2.30
2023-02-11T22:23:29.278Z,1.92
2023-02-11T22:25:57.190Z,2.20
2023-02-11T22:28:28.098Z,2.17
2023-02-11T22:30:56.195Z,2.03
2023-02-11T22:33:24.308Z,2.35
2023-02-11T22:35:58.945Z,2.90
2023-02-11T22:38:26.646Z,2.22
2023-02-11T22:40:54.008Z,2.15
2023-02-11T22:43:21.388Z,2.50
2023-02-11T22:45:49.006Z,1.83
2023-02-11T22:48:16.405Z,2.50
2023-02-11T22:50:43.771Z,2.10
2023-02-11T22:53:11.096Z,2.05
2023-02-11T22:55:39.284Z,1.77
2023-02-11T22:58:06.776Z,1.55
2023-02-11T23:00:37.446Z,1.67
2023-02-11T23:03:04.992Z,1.27
2023-02-11T23:05:32.564Z,1.30
2023-02-11T23:07:59.866Z,1.70
2023-02-11T23:10:27.059Z,1.90
2023-02-11T23:12:54.467Z,2.40
2023-02-11T23:15:21.709Z,2.60
2023-02-11T23:17:48.994Z,2.42
2023-02-11T23:20:16.186Z,2.20
2023-02-11T23:22:43.039Z,2.35
2023-02-11T23:25:10.114Z,2.17
2023-02-11T23:27:37.061Z,2.00
2023-02-11T23:30:04.685Z,1.95
2023-02-11T23:32:31.647Z,1.65
2023-02-11T23:34:58.671Z,1.50
2023-02-11T23:37:25.641Z,1.38
2023-02-11T23:39:52.755Z,1.70
2023-02-11T23:42:19.598Z,1.30
2023-02-11T23:44:46.813Z,1.30
2023-02-11T23:47:13.745Z,1.27
2023-02-11T23:49:40.915Z,1.50
2023-02-11T23:52:07.996Z,1.35
2023-02-11T23:54:34.812Z,1.45
2023-02-11T23:57:01.806Z,2.00
2023-02-11T23:59:28.661Z,3.00
